1997 OPHELIA (1996349S09108)


On this page: IBTrACS data - Map and Plots - Positions - Intensities - Original source data

Summary

Start Dec 13
End Dec 27
Basin SI
LMI 55 kt
Sources jtwc_sh
bom
neumann
In WMO? Yes
Previous storm 1996 MISSING (WP)
Previous in basin 1997 NICHOLAS (SI)
Concurrent storms 1997 ELVINA (SI)
1997 NICHOLAS (SI)
1996 MISSING (WP)
1997 OPHELIA (SI)
1996 FERN (WP)
1997 FERGUS (SP)
1996 GREG (WP)
1997 PHIL (SP)
1997 FABRIOLA (SI)
Next in basin 1997 PHIL (SP)
Next storm 1996 FERN (WP)

top of page IBTrACS Data: File Access

Image of storm

top of page Plots:

Map of storm track will not appear if FTP is down
Time series of cyclone Maximum Sustained Wind will not appear if FTP is down
Time series of cyclone Minimum Central Pressure will not appear if FTP is down

top of page Track Data:Position

jtwc_sh bom neumann
Date Lat Lon Lat Lon Lat Lon
1996-12-13 12:00:00 -9.0 107.9
1996-12-13 18:00:00 -10.0 109.4 -8.9 108.0 -10.0 109.4
1996-12-14 00:00:00 -10.0 108.9 -9.0 108.0 -10.0 108.9
1996-12-14 06:00:00 -10.0 108.4 -9.2 108.0 -10.0 108.4
1996-12-14 12:00:00 -10.0 108.0 -9.7 108.0 -10.0 108.0
1996-12-14 18:00:00 -10.2 108.1 -9.8 108.2 -10.2 108.1
1996-12-15 00:00:00 -10.3 108.3 -9.8 108.4 -10.3 108.3
1996-12-15 06:00:00 -10.4 108.7 -10.2 108.6 -10.4 108.7
1996-12-15 12:00:00 -10.6 109.1 -10.6 108.8 -10.6 109.1
1996-12-15 18:00:00 -11.0 109.7 -11.0 109.4 -11.0 109.7
1996-12-16 00:00:00 -11.5 110.4 -11.5 110.3 -11.5 110.4
1996-12-16 06:00:00 -12.1 111.0 -12.2 111.1 -12.1 111.0
1996-12-16 12:00:00 -12.7 111.9 -12.8 112.0 -12.7 111.9
1996-12-16 18:00:00 -13.2 113.0 -13.1 112.9 -13.2 113.0
1996-12-17 00:00:00 -13.5 114.0 -13.4 113.9 -13.5 114.0
1996-12-17 06:00:00 -13.6 114.9 -13.7 114.9 -13.6 114.9
1996-12-17 12:00:00 -13.5 115.5 -13.7 115.7 -13.5 115.5
1996-12-17 18:00:00 -13.5 116.2 -13.8 116.3 -13.5 116.2
1996-12-18 00:00:00 -13.6 116.8 -13.8 116.8 -13.6 116.8
1996-12-18 06:00:00 -13.7 117.2 -13.8 117.3 -13.7 117.2
1996-12-18 12:00:00 -14.0 117.5 -14.3 117.6 -14.0 117.5
1996-12-18 18:00:00 -14.2 117.6 -14.6 117.5 -14.2 117.6
1996-12-19 00:00:00 -14.4 117.7 -15.0 117.4 -14.4 117.7
1996-12-19 06:00:00 -14.6 117.7 -15.4 117.1 -14.6 117.7
1996-12-19 12:00:00 -14.7 117.6 -15.7 116.7 -14.7 117.6
jtwc_sh bom neumann
1996-12-19 18:00:00 -14.8 117.3 -14.8 117.3
1996-12-20 00:00:00 -14.9 116.9 -14.9 116.9
1996-12-20 06:00:00 -15.1 116.5 -15.1 116.5
1996-12-20 12:00:00 -15.5 116.0 -15.5 116.0
1996-12-20 18:00:00 -15.7 115.6 -15.7 115.6
1996-12-21 00:00:00 -15.8 115.3 -15.8 115.3
1996-12-21 06:00:00 -15.8 115.2 -15.8 115.2
1996-12-21 12:00:00 -15.8 115.1 -15.8 115.1
1996-12-21 18:00:00 -15.8 115.0 -15.8 115.0
1996-12-22 00:00:00 -15.8 114.8 -15.8 114.8
1996-12-22 06:00:00 -15.8 114.6 -15.8 114.6
1996-12-22 12:00:00 -15.8 114.3 -15.8 114.3
1996-12-22 18:00:00 -15.8 113.9 -15.8 113.9
1996-12-23 00:00:00 -15.6 113.4 -15.6 113.4
1996-12-23 06:00:00 -15.4 113.1 -15.4 113.1
1996-12-23 12:00:00 -15.3 112.9 -15.3 112.9
1996-12-23 18:00:00 -14.9 112.9 -14.9 112.9
1996-12-24 00:00:00 -14.6 113.1 -14.6 113.1
1996-12-24 06:00:00 -14.3 113.5 -14.3 113.5
1996-12-24 12:00:00 -14.3 113.8 -14.3 113.8
1996-12-24 18:00:00 -14.7 113.7 -14.7 113.7
1996-12-25 00:00:00 -15.0 113.5 -15.0 113.5
1996-12-25 06:00:00 -15.5 113.2 -15.5 113.2
1996-12-25 12:00:00 -15.9 112.9 -15.9 112.9
jtwc_sh bom neumann
1996-12-25 18:00:00 -16.1 112.7 -16.1 112.7
1996-12-26 00:00:00 -16.3 112.5 -16.3 112.5
1996-12-26 06:00:00 -16.5 112.1 -16.5 112.1
1996-12-26 12:00:00 -16.6 111.6 -16.6 111.6
1996-12-26 18:00:00 -16.7 111.1 -16.7 111.1
1996-12-27 00:00:00 -16.9 110.6 -16.9 110.6
1996-12-27 06:00:00 -17.1 110.1 -17.1 110.1

top of pageTrack Data:Intensity

jtwc_sh bom neumann
Date Wind Pres Wind Pres Wind Pres
1996-12-13 12:00:00 23. 1002.
1996-12-13 18:00:00 25. 23. 1002. 25.
1996-12-14 00:00:00 25. 27. 1000. 25.
1996-12-14 06:00:00 25. 27. 1000. 25.
1996-12-14 12:00:00 30. 29. 998. 30.
1996-12-14 18:00:00 35. 29. 998. 35.
1996-12-15 00:00:00 40. 35. 995. 40.
1996-12-15 06:00:00 45. 41. 990. 45.
1996-12-15 12:00:00 45. 41. 990. 45.
1996-12-15 18:00:00 50. 47. 985. 50.
1996-12-16 00:00:00 55. 54. 980. 55.
1996-12-16 06:00:00 55. 54. 980. 55.
1996-12-16 12:00:00 55. 47. 985. 55.
1996-12-16 18:00:00 55. 47. 985. 55.
1996-12-17 00:00:00 55. 41. 990. 55.
1996-12-17 06:00:00 55. 41. 990. 55.
1996-12-17 12:00:00 50. 35. 995. 50.
1996-12-17 18:00:00 45. 29. 998. 45.
1996-12-18 00:00:00 45. 27. 1000. 45.
1996-12-18 06:00:00 40. 27. 1000. 40.
1996-12-18 12:00:00 40. 27. 1000. 40.
1996-12-18 18:00:00 40. 27. 1000. 40.
1996-12-19 00:00:00 35. 27. 1000. 35.
1996-12-19 06:00:00 35. 27. 1000. 35.
1996-12-19 12:00:00 35. 27. 1000. 35.
jtwc_sh bom neumann
1996-12-19 18:00:00 35. 35.
1996-12-20 00:00:00 30. 30.
1996-12-20 06:00:00 30. 30.
1996-12-20 12:00:00 25. 25.
1996-12-20 18:00:00 25. 25.
1996-12-21 00:00:00 25. 25.
1996-12-21 06:00:00 25. 25.
1996-12-21 12:00:00 25. 25.
1996-12-21 18:00:00 25. 25.
1996-12-22 00:00:00 25. 25.
1996-12-22 06:00:00 25. 25.
1996-12-22 12:00:00 25. 25.
1996-12-22 18:00:00 25. 25.
1996-12-23 00:00:00 25. 25.
1996-12-23 06:00:00 25. 25.
1996-12-23 12:00:00 25. 25.
1996-12-23 18:00:00 25. 25.
1996-12-24 00:00:00 25. 25.
1996-12-24 06:00:00 25. 25.
1996-12-24 12:00:00 25. 25.
1996-12-24 18:00:00 25. 25.
1996-12-25 00:00:00 25. 25.
1996-12-25 06:00:00 30. 30.
1996-12-25 12:00:00 30. 30.
jtwc_sh bom neumann
1996-12-25 18:00:00 30. 30.
1996-12-26 00:00:00 30. 30.
1996-12-26 06:00:00 30. 30.
1996-12-26 12:00:00 25. 25.
1996-12-26 18:00:00 25. 25.
1996-12-27 00:00:00 25. 25.
1996-12-27 06:00:00 25. 25.

top of page Links to source data

Source Source file Format
jtwc_sh bsh111997.txt ATCF
bom IDCKMSTM0S.csv:Line=20206:OPHELIA CSV file (from Excel file)
neumann tracks.sh:Storm=1075:OPHELIA:BSH111997:JTWC&BM854 HURDAT